createdAt,value
2018-09-03T00:01:48.731Z,13.50
2018-09-03T00:04:17.871Z,13.60
2018-09-03T00:06:47.052Z,13.50
2018-09-03T00:09:36.310Z,13.40
2018-09-03T00:12:05.447Z,13.30
2018-09-03T00:14:34.553Z,13.30
2018-09-03T00:17:03.914Z,13.30
2018-09-03T00:19:33.030Z,13.30
2018-09-03T00:22:02.262Z,13.20
2018-09-03T00:24:31.373Z,13.20
2018-09-03T00:27:01.257Z,13.10
2018-09-03T00:29:30.373Z,13.00
2018-09-03T00:32:05.054Z,13.00
2018-09-03T00:34:39.565Z,13.00
2018-09-03T00:37:14.005Z,13.00
2018-09-03T00:39:48.403Z,13.00
2018-09-03T00:42:22.941Z,13.20
2018-09-03T00:44:57.558Z,13.20
2018-09-03T00:47:26.773Z,13.10
2018-09-03T00:49:55.875Z,13.10
2018-09-03T00:52:24.949Z,13.10
2018-09-03T00:54:54.066Z,13.10
2018-09-03T00:57:23.166Z,13.20
2018-09-03T00:59:52.229Z,13.10
2018-09-03T01:02:21.296Z,13.00
2018-09-03T01:04:50.338Z,12.90
2018-09-03T01:07:19.611Z,12.80
2018-09-03T01:09:48.686Z,12.80
2018-09-03T01:12:17.987Z,12.80
2018-09-03T01:14:47.095Z,12.80
2018-09-03T01:17:16.777Z,12.70
2018-09-03T01:19:45.834Z,12.70
2018-09-03T01:22:15.019Z,12.80
2018-09-03T01:24:44.068Z,12.70
2018-09-03T01:27:13.233Z,12.80
2018-09-03T01:29:42.367Z,12.80
2018-09-03T01:32:11.493Z,12.80
2018-09-03T01:34:40.586Z,13.00
2018-09-03T01:37:09.650Z,12.90
2018-09-03T01:39:38.690Z,12.90
2018-09-03T01:42:07.801Z,12.70
2018-09-03T01:44:36.866Z,12.60
2018-09-03T01:47:06.014Z,12.60
2018-09-03T01:49:35.070Z,12.70
2018-09-03T01:52:04.270Z,12.70
2018-09-03T01:54:33.313Z,12.70
2018-09-03T01:57:02.373Z,12.60
2018-09-03T01:59:31.738Z,12.60
2018-09-03T02:02:00.805Z,12.60
2018-09-03T02:04:29.875Z,12.60
2018-09-03T02:06:58.967Z,12.60
2018-09-03T02:09:28.041Z,12.50
2018-09-03T02:11:57.137Z,12.50
2018-09-03T02:14:26.204Z,12.40
2018-09-03T02:16:55.305Z,12.50
2018-09-03T02:19:24.374Z,12.50
2018-09-03T02:21:53.453Z,12.70
2018-09-03T02:24:22.507Z,12.70
2018-09-03T02:26:51.661Z,12.70
2018-09-03T02:29:20.697Z,12.60
2018-09-03T02:31:49.915Z,12.60
2018-09-03T02:34:19.094Z,12.40
2018-09-03T02:36:48.677Z,12.40
2018-09-03T02:39:17.990Z,12.40
2018-09-03T02:41:47.143Z,12.40
2018-09-03T02:44:16.261Z,12.40
2018-09-03T02:46:45.384Z,12.30
2018-09-03T02:49:14.521Z,12.30
2018-09-03T02:51:44.204Z,12.20
2018-09-03T02:54:13.329Z,12.30
2018-09-03T02:56:42.958Z,12.20
2018-09-03T02:59:12.388Z,12.20
2018-09-03T03:01:41.483Z,12.20
2018-09-03T03:04:10.583Z,12.10
2018-09-03T03:06:39.697Z,12.10
2018-09-03T03:09:09.720Z,12.10
2018-09-03T03:11:39.711Z,12.10
2018-09-03T03:14:09.005Z,12.00
2018-09-03T03:16:38.824Z,11.90
2018-09-03T03:19:07.971Z,11.80
2018-09-03T03:21:37.242Z,11.80
2018-09-03T03:24:06.378Z,11.80
2018-09-03T03:26:35.490Z,11.90
2018-09-03T03:29:04.752Z,11.90
2018-09-03T03:31:33.913Z,12.00
2018-09-03T03:34:03.057Z,12.10
2018-09-03T03:36:32.138Z,12.10
2018-09-03T03:39:01.217Z,12.10
2018-09-03T03:41:30.302Z,12.10
2018-09-03T03:43:59.378Z,12.00
2018-09-03T03:46:28.445Z,12.00
2018-09-03T03:48:57.519Z,11.90
2018-09-03T03:51:26.692Z,12.10
2018-09-03T03:53:55.745Z,12.20
2018-09-03T03:56:24.790Z,12.20
2018-09-03T03:58:53.889Z,12.30
2018-09-03T04:01:23.053Z,12.40
2018-09-03T04:03:52.653Z,12.40
2018-09-03T04:06:21.742Z,12.40
2018-09-03T04:08:50.849Z,12.40
2018-09-03T04:11:19.933Z,12.50
2018-09-03T04:13:48.994Z,12.50
2018-09-03T04:16:18.573Z,12.50
2018-09-03T04:18:47.651Z,12.50
2018-09-03T04:21:16.721Z,12.60
2018-09-03T04:23:45.766Z,12.60
2018-09-03T04:26:14.848Z,12.50
2018-09-03T04:28:44.014Z,12.50
2018-09-03T04:31:13.042Z,12.50
2018-09-03T04:33:42.121Z,12.60
2018-09-03T04:36:11.319Z,12.60
2018-09-03T04:38:40.422Z,12.70
2018-09-03T04:41:09.578Z,12.70
2018-09-03T04:43:38.677Z,12.70
2018-09-03T04:46:07.840Z,12.70
2018-09-03T04:48:36.933Z,12.70
2018-09-03T04:51:06.101Z,12.70
2018-09-03T04:53:35.231Z,12.70
2018-09-03T04:56:04.430Z,12.80
2018-09-03T04:58:34.146Z,12.90
2018-09-03T05:01:03.271Z,12.90
2018-09-03T05:03:32.481Z,12.80
2018-09-03T05:06:01.716Z,12.90
2018-09-03T05:08:30.834Z,13.00
2018-09-03T05:11:00.068Z,13.10
2018-09-03T05:13:29.777Z,13.00
2018-09-03T05:15:58.903Z,13.10
2018-09-03T05:18:28.062Z,13.10
2018-09-03T05:20:57.301Z,13.10
2018-09-03T05:23:26.445Z,13.20
2018-09-03T05:25:55.582Z,13.20
2018-09-03T05:28:24.687Z,13.20
2018-09-03T05:30:53.834Z,13.30
2018-09-03T05:33:23.014Z,13.40
2018-09-03T05:35:52.157Z,13.40
2018-09-03T05:38:21.373Z,13.50
2018-09-03T05:40:50.691Z,13.40
2018-09-03T05:43:19.918Z,13.50
2018-09-03T05:45:48.994Z,13.50
2018-09-03T05:48:18.177Z,13.50
2018-09-03T05:50:47.361Z,13.50
2018-09-03T05:53:16.482Z,13.50
2018-09-03T05:55:45.625Z,13.70
2018-09-03T05:58:14.754Z,13.80
2018-09-03T06:00:44.053Z,13.90
2018-09-03T06:03:13.198Z,14.00
2018-09-03T06:05:42.301Z,14.00
2018-09-03T06:08:11.471Z,14.00
2018-09-03T06:10:40.743Z,14.10
2018-09-03T06:13:09.689Z,14.10
2018-09-03T06:15:38.853Z,14.20
2018-09-03T06:18:07.990Z,14.20
2018-09-03T06:20:37.817Z,14.30
2018-09-03T06:23:06.979Z,14.30
2018-09-03T06:25:36.088Z,14.40
2018-09-03T06:28:05.226Z,14.40
2018-09-03T06:30:34.321Z,14.40
2018-09-03T06:33:03.505Z,14.50
2018-09-03T06:35:32.645Z,14.60
2018-09-03T06:38:01.800Z,14.60
2018-09-03T06:40:30.893Z,14.60
2018-09-03T06:43:00.127Z,14.70
2018-09-03T06:45:29.270Z,14.80
2018-09-03T06:47:58.402Z,14.70
2018-09-03T06:50:27.533Z,14.70
2018-09-03T06:52:56.709Z,14.80
2018-09-03T06:55:25.854Z,14.80
2018-09-03T06:57:54.990Z,14.90
2018-09-03T07:00:24.769Z,14.80
2018-09-03T07:02:53.938Z,14.90
2018-09-03T07:05:23.034Z,15.00
2018-09-03T07:07:52.158Z,15.00
2018-09-03T07:10:21.645Z,15.10
2018-09-03T07:12:50.770Z,15.20
2018-09-03T07:15:19.957Z,15.20
2018-09-03T07:17:49.074Z,15.30
2018-09-03T07:20:18.272Z,15.40
2018-09-03T07:22:48.211Z,15.50
2018-09-03T07:25:17.325Z,15.60
2018-09-03T07:27:46.462Z,15.60
2018-09-03T07:30:15.582Z,15.70
2018-09-03T07:32:44.709Z,15.80
2018-09-03T07:35:13.906Z,15.70
2018-09-03T07:37:42.960Z,15.80
2018-09-03T07:40:12.165Z,15.80
2018-09-03T07:42:41.290Z,15.80
2018-09-03T07:45:10.454Z,15.80
2018-09-03T07:47:39.602Z,15.80
2018-09-03T07:50:08.775Z,15.70
2018-09-03T07:52:37.873Z,15.70
2018-09-03T07:55:07.089Z,15.70
2018-09-03T07:57:36.764Z,15.80
2018-09-03T08:00:06.917Z,15.80
2018-09-03T08:02:36.013Z,15.80
2018-09-03T08:05:05.912Z,15.80
2018-09-03T08:07:35.126Z,15.80
2018-09-03T08:10:04.211Z,15.80
2018-09-03T08:12:33.318Z,15.90
2018-09-03T08:15:02.456Z,16.00
2018-09-03T08:17:31.554Z,16.00
2018-09-03T08:20:00.775Z,16.10
2018-09-03T08:22:29.877Z,16.10
2018-09-03T08:24:59.007Z,16.10
2018-09-03T08:27:28.150Z,16.20
2018-09-03T08:29:57.354Z,16.30
2018-09-03T08:32:27.058Z,16.30
2018-09-03T08:34:56.213Z,16.30
2018-09-03T08:37:25.513Z,16.40
2018-09-03T08:39:54.773Z,16.40
2018-09-03T08:42:24.299Z,16.40
2018-09-03T08:44:53.511Z,16.50
2018-09-03T08:47:22.688Z,16.60
2018-09-03T08:49:51.793Z,16.60
2018-09-03T08:52:20.904Z,16.60
2018-09-03T08:54:50.181Z,16.70
2018-09-03T08:57:19.354Z,16.80
2018-09-03T08:59:48.554Z,16.80
2018-09-03T09:02:17.678Z,16.80
2018-09-03T09:04:46.802Z,16.80
2018-09-03T09:07:15.926Z,16.80
2018-09-03T09:09:45.164Z,16.80
2018-09-03T09:12:15.201Z,16.90
2018-09-03T09:14:44.360Z,17.00
2018-09-03T09:17:13.498Z,17.00
2018-09-03T09:19:42.740Z,17.10
2018-09-03T09:22:11.854Z,17.20
2018-09-03T09:24:40.968Z,17.30
2018-09-03T09:27:10.078Z,17.30
2018-09-03T09:29:39.197Z,17.40
2018-09-03T09:32:08.334Z,17.50
2018-09-03T09:34:37.459Z,17.50
2018-09-03T09:37:06.667Z,17.60
2018-09-03T09:39:35.849Z,17.60
2018-09-03T09:42:04.985Z,17.60
2018-09-03T09:44:34.098Z,17.70
2018-09-03T09:47:03.266Z,17.70
2018-09-03T09:49:35.522Z,17.70
2018-09-03T09:52:04.921Z,17.80
2018-09-03T09:54:34.017Z,17.90
2018-09-03T09:57:03.133Z,17.90
2018-09-03T09:59:32.351Z,17.90
2018-09-03T10:02:01.485Z,18.00
2018-09-03T10:04:31.318Z,18.00
2018-09-03T10:07:00.442Z,18.00
2018-09-03T10:09:29.573Z,18.00
2018-09-03T10:11:58.732Z,17.90
2018-09-03T10:14:27.881Z,18.00
2018-09-03T10:16:57.014Z,18.00
2018-09-03T10:19:26.549Z,18.10
2018-09-03T10:21:55.694Z,18.10
2018-09-03T10:24:24.770Z,18.20
2018-09-03T10:26:53.939Z,18.30
2018-09-03T10:29:23.917Z,18.30
2018-09-03T10:31:53.064Z,18.30
2018-09-03T10:34:22.156Z,18.40
2018-09-03T10:36:51.248Z,18.50
2018-09-03T10:39:20.494Z,18.60
2018-09-03T10:41:49.544Z,18.80
2018-09-03T10:44:18.642Z,18.70
2018-09-03T10:46:49.186Z,18.70
2018-09-03T10:49:18.265Z,18.80
2018-09-03T10:51:47.338Z,19.30
2018-09-03T10:54:16.416Z,19.70
2018-09-03T10:56:45.477Z,20.30
2018-09-03T10:59:14.585Z,21.00
2018-09-03T11:01:43.654Z,21.20
2018-09-03T11:04:12.725Z,21.30
2018-09-03T11:06:41.837Z,21.50
2018-09-03T11:09:11.810Z,21.90
2018-09-03T11:11:41.064Z,21.80
2018-09-03T11:14:10.193Z,21.20
2018-09-03T11:16:39.986Z,20.90
2018-09-03T11:19:09.110Z,21.00
2018-09-03T11:21:38.393Z,21.10
2018-09-03T11:24:07.358Z,21.20
2018-09-03T11:26:36.465Z,21.10
2018-09-03T11:29:05.586Z,21.30
2018-09-03T11:31:34.670Z,21.20
2018-09-03T11:34:03.834Z,21.40
2018-09-03T11:36:32.970Z,21.50
2018-09-03T11:39:02.053Z,21.50
2018-09-03T11:41:31.126Z,20.90
2018-09-03T11:44:00.218Z,21.20
2018-09-03T11:46:29.300Z,21.30
2018-09-03T11:48:58.410Z,21.40
2018-09-03T11:51:27.511Z,21.50
2018-09-03T11:53:56.653Z,21.80
2018-09-03T11:56:26.249Z,21.70
2018-09-03T11:58:55.354Z,21.70
2018-09-03T12:01:24.437Z,22.10
2018-09-03T12:03:53.537Z,22.10
2018-09-03T12:06:22.619Z,22.00
2018-09-03T12:08:51.694Z,21.60
2018-09-03T12:11:20.786Z,21.60
2018-09-03T12:13:50.013Z,21.10
2018-09-03T12:16:21.296Z,20.90
2018-09-03T12:18:50.497Z,21.00
2018-09-03T12:21:19.683Z,21.30
2018-09-03T12:23:48.785Z,21.60
2018-09-03T12:26:18.823Z,21.30
2018-09-03T12:28:48.034Z,21.10
2018-09-03T12:31:17.358Z,21.10
2018-09-03T12:33:46.498Z,21.20
2018-09-03T12:36:15.597Z,21.20
2018-09-03T12:38:44.709Z,21.10
2018-09-03T12:41:13.842Z,21.20
2018-09-03T12:43:42.990Z,21.70
2018-09-03T12:46:12.094Z,22.10
2018-09-03T12:48:41.170Z,22.60
2018-09-03T12:51:10.304Z,22.80
2018-09-03T12:53:39.422Z,23.10
2018-09-03T12:56:08.554Z,23.70
2018-09-03T12:58:40.903Z,23.70
2018-09-03T13:01:09.917Z,23.50
2018-09-03T13:03:38.993Z,23.20
2018-09-03T13:06:08.454Z,23.10
2018-09-03T13:08:37.589Z,22.00
2018-09-03T13:11:06.690Z,22.70
2018-09-03T13:13:35.749Z,23.20
2018-09-03T13:16:06.109Z,23.50
2018-09-03T13:18:35.197Z,23.90
2018-09-03T13:21:04.314Z,23.70
2018-09-03T13:23:33.400Z,23.50
2018-09-03T13:26:02.493Z,23.30
2018-09-03T13:28:31.551Z,23.20
2018-09-03T13:31:00.655Z,23.10
2018-09-03T13:33:29.727Z,22.70
2018-09-03T13:35:58.864Z,22.80
2018-09-03T13:38:27.970Z,22.70
2018-09-03T13:40:57.118Z,22.40
2018-09-03T13:43:26.181Z,22.50
2018-09-03T13:45:55.357Z,22.60
2018-09-03T13:48:24.572Z,22.10
2018-09-03T13:50:54.059Z,21.80
2018-09-03T13:53:23.133Z,22.00
2018-09-03T13:55:52.225Z,22.00
2018-09-03T13:58:21.305Z,22.30
2018-09-03T14:00:50.658Z,22.10
2018-09-03T14:03:19.717Z,22.50
2018-09-03T14:05:49.370Z,22.00
2018-09-03T14:08:18.527Z,21.80
2018-09-03T14:10:47.657Z,22.20
2018-09-03T14:13:16.719Z,22.10
2018-09-03T14:15:45.985Z,22.50
2018-09-03T14:18:15.162Z,23.10
2018-09-03T14:20:44.285Z,23.50
2018-09-03T14:23:13.382Z,23.60
2018-09-03T14:25:42.474Z,23.00
2018-09-03T14:28:11.621Z,22.80
2018-09-03T14:30:40.705Z,22.40
2018-09-03T14:33:09.774Z,22.50
2018-09-03T14:35:39.362Z,22.10
2018-09-03T14:38:08.470Z,22.20
2018-09-03T14:40:37.598Z,22.30
2018-09-03T14:43:06.714Z,22.30
2018-09-03T14:45:35.826Z,22.20
2018-09-03T14:48:04.986Z,22.20
2018-09-03T14:50:34.119Z,21.90
2018-09-03T14:53:03.219Z,21.90
2018-09-03T14:55:32.313Z,21.80
2018-09-03T14:58:01.489Z,21.60
2018-09-03T15:00:30.642Z,21.60
2018-09-03T15:02:59.747Z,21.40
2018-09-03T15:05:28.811Z,21.40
2018-09-03T15:07:58.045Z,21.30
2018-09-03T15:10:27.086Z,21.30
2018-09-03T15:12:56.194Z,21.10
2018-09-03T15:15:25.257Z,21.10
2018-09-03T15:17:54.343Z,21.00
2018-09-03T15:20:23.573Z,21.00
2018-09-03T15:22:52.662Z,21.00
2018-09-03T15:25:21.738Z,20.90
2018-09-03T15:27:50.870Z,20.90
2018-09-03T15:30:20.701Z,20.90
2018-09-03T15:32:49.810Z,20.90
2018-09-03T15:35:18.901Z,20.80
2018-09-03T15:37:48.049Z,20.80
2018-09-03T15:40:17.833Z,20.70
2018-09-03T15:42:46.997Z,20.70
2018-09-03T15:45:16.048Z,20.60
2018-09-03T15:47:45.392Z,20.60
2018-09-03T15:50:14.719Z,20.60
2018-09-03T15:52:43.817Z,20.60
2018-09-03T15:55:12.927Z,20.60
2018-09-03T15:57:42.034Z,20.60
2018-09-03T16:00:11.495Z,20.60
2018-09-03T16:02:40.738Z,20.60
2018-09-03T16:05:09.990Z,20.50
2018-09-03T16:07:39.082Z,20.40
2018-09-03T16:10:08.233Z,20.50
2018-09-03T16:12:37.328Z,20.40
2018-09-03T16:15:06.626Z,20.40
2018-09-03T16:17:35.734Z,20.40
2018-09-03T16:20:05.128Z,20.40
2018-09-03T16:22:34.208Z,20.30
2018-09-03T16:25:03.434Z,20.30
2018-09-03T16:27:32.623Z,20.30
2018-09-03T16:30:01.613Z,20.20
2018-09-03T16:32:30.686Z,20.20
2018-09-03T16:35:00.472Z,20.20
2018-09-03T16:37:29.550Z,20.20
2018-09-03T16:39:58.641Z,20.10
2018-09-03T16:42:27.725Z,20.10
2018-09-03T16:44:56.858Z,20.10
2018-09-03T16:47:25.945Z,20.00
2018-09-03T16:49:55.129Z,19.90
2018-09-03T16:52:24.240Z,19.90
2018-09-03T16:54:53.374Z,19.90
2018-09-03T16:57:22.489Z,19.90
2018-09-03T16:59:51.587Z,19.80
2018-09-03T17:02:20.662Z,19.70
2018-09-03T17:04:50.414Z,19.50
2018-09-03T17:07:19.628Z,19.50
2018-09-03T17:09:48.728Z,19.50
2018-09-03T17:12:17.837Z,19.40
2018-09-03T17:14:46.990Z,19.30
2018-09-03T17:17:16.053Z,19.30
2018-09-03T17:19:45.243Z,19.20
2018-09-03T17:22:14.339Z,19.10
2018-09-03T17:24:43.499Z,19.10
2018-09-03T17:27:12.742Z,19.00
2018-09-03T17:29:41.953Z,18.90
2018-09-03T17:32:11.017Z,18.90
2018-09-03T17:34:40.125Z,18.90
2018-09-03T17:37:09.240Z,18.70
2018-09-03T17:39:38.355Z,18.60
2018-09-03T17:42:07.445Z,18.60
2018-09-03T17:44:36.561Z,18.60
2018-09-03T17:47:05.726Z,18.50
2018-09-03T17:49:35.172Z,18.40
2018-09-03T17:52:05.959Z,18.40
2018-09-03T17:54:35.064Z,18.30
2018-09-03T17:57:04.323Z,18.30
2018-09-03T17:59:33.469Z,18.30
2018-09-03T18:02:02.658Z,18.30
2018-09-03T18:04:31.826Z,18.10
2018-09-03T18:07:01.058Z,18.10
2018-09-03T18:09:31.182Z,18.10
2018-09-03T18:12:01.707Z,18.00
2018-09-03T18:14:31.517Z,18.00
2018-09-03T18:17:01.686Z,17.90
2018-09-03T18:19:30.818Z,17.80
2018-09-03T18:22:00.787Z,17.80
2018-09-03T18:24:31.032Z,17.80
2018-09-03T18:27:01.037Z,17.70
2018-09-03T18:29:31.930Z,17.70
2018-09-03T18:32:02.723Z,17.70
2018-09-03T18:34:32.227Z,17.70
2018-09-03T18:37:01.486Z,17.70
2018-09-03T18:39:31.015Z,17.50
2018-09-03T18:42:00.176Z,17.40
2018-09-03T18:44:29.306Z,17.40
2018-09-03T18:47:00.565Z,17.40
2018-09-03T18:49:29.696Z,17.10
2018-09-03T18:51:58.974Z,16.90
2018-09-03T18:54:28.079Z,16.70
2018-09-03T18:56:57.348Z,16.80
2018-09-03T18:59:26.445Z,16.90
2018-09-03T19:01:55.658Z,17.10
2018-09-03T19:04:25.013Z,16.80
2018-09-03T19:06:54.910Z,16.80
2018-09-03T19:09:24.566Z,16.70
2018-09-03T19:11:53.682Z,16.60
2018-09-03T19:14:22.761Z,16.50
2018-09-03T19:16:51.897Z,16.40
2018-09-03T19:19:21.065Z,16.40
2018-09-03T19:21:50.254Z,16.30
2018-09-03T19:24:19.327Z,16.20
2018-09-03T19:26:48.422Z,16.20
2018-09-03T19:29:17.535Z,16.10
2018-09-03T19:31:46.665Z,16.20
2018-09-03T19:34:15.752Z,16.20
2018-09-03T19:36:45.589Z,16.10
2018-09-03T19:39:14.598Z,15.90
2018-09-03T19:41:43.705Z,15.80
2018-09-03T19:44:12.837Z,15.80
2018-09-03T19:46:42.224Z,15.70
2018-09-03T19:49:12.065Z,15.60
2018-09-03T19:51:41.181Z,15.60
2018-09-03T19:54:10.266Z,15.70
2018-09-03T19:56:39.427Z,15.60
2018-09-03T19:59:08.514Z,15.60
2018-09-03T20:01:37.653Z,15.50
2018-09-03T20:04:07.295Z,15.60
2018-09-03T20:06:36.403Z,15.40
2018-09-03T20:09:06.751Z,15.30
2018-09-03T20:11:37.134Z,15.10
2018-09-03T20:14:06.637Z,15.10
2018-09-03T20:16:36.257Z,15.30
2018-09-03T20:19:05.420Z,15.30
2018-09-03T20:21:34.526Z,15.20
2018-09-03T20:24:03.635Z,15.20
2018-09-03T20:26:32.798Z,15.20
2018-09-03T20:29:02.053Z,15.10
2018-09-03T20:31:31.130Z,15.10
2018-09-03T20:34:00.226Z,15.10
2018-09-03T20:36:29.377Z,15.00
2018-09-03T20:38:58.831Z,14.90
2018-09-03T20:41:27.910Z,14.90
2018-09-03T20:43:57.087Z,14.80
2018-09-03T20:46:26.705Z,14.90
2018-09-03T20:48:55.821Z,14.90
2018-09-03T20:51:25.224Z,14.70
2018-09-03T20:53:54.325Z,14.80
2018-09-03T20:56:23.524Z,14.60
2018-09-03T20:58:52.649Z,14.60
2018-09-03T21:01:21.772Z,14.60
2018-09-03T21:03:51.152Z,14.70
2018-09-03T21:06:20.380Z,14.70
2018-09-03T21:08:49.491Z,14.80
2018-09-03T21:11:18.577Z,14.60
2018-09-03T21:13:47.721Z,14.20
2018-09-03T21:16:16.816Z,14.40
2018-09-03T21:18:46.068Z,14.30
2018-09-03T21:21:15.221Z,14.30
2018-09-03T21:23:44.663Z,14.20
2018-09-03T21:26:13.733Z,14.30
2018-09-03T21:28:42.900Z,14.40
2018-09-03T21:31:11.919Z,14.40
2018-09-03T21:33:41.147Z,14.30
2018-09-03T21:36:10.454Z,14.20
2018-09-03T21:38:39.597Z,14.30
2018-09-03T21:41:08.697Z,14.30
2018-09-03T21:43:37.806Z,14.20
2018-09-03T21:46:08.337Z,14.10
2018-09-03T21:48:37.575Z,14.10
2018-09-03T21:51:06.722Z,14.00
2018-09-03T21:53:35.821Z,14.10
2018-09-03T21:56:04.910Z,14.10
2018-09-03T21:58:34.016Z,13.90
2018-09-03T22:01:03.424Z,13.60
2018-09-03T22:03:32.541Z,13.80
2018-09-03T22:06:01.670Z,13.90
2018-09-03T22:08:30.797Z,13.80
2018-09-03T22:10:59.927Z,13.80
2018-09-03T22:13:29.005Z,13.80
2018-09-03T22:15:58.129Z,13.90
2018-09-03T22:18:27.261Z,14.00
2018-09-03T22:20:56.418Z,13.90
2018-09-03T22:23:25.686Z,13.90
2018-09-03T22:25:54.868Z,13.80
2018-09-03T22:28:23.949Z,13.70
2018-09-03T22:30:53.046Z,13.50
2018-09-03T22:33:22.861Z,13.40
2018-09-03T22:35:51.970Z,13.40
2018-09-03T22:38:21.078Z,13.50
2018-09-03T22:40:50.303Z,13.50
2018-09-03T22:43:19.379Z,13.60
2018-09-03T22:45:48.621Z,13.60
2018-09-03T22:48:17.974Z,13.40
2018-09-03T22:50:47.673Z,13.30
2018-09-03T22:53:16.757Z,13.30
2018-09-03T22:55:45.943Z,13.30
2018-09-03T22:58:15.046Z,13.30
2018-09-03T23:00:44.174Z,13.30
2018-09-03T23:03:13.229Z,13.20
2018-09-03T23:05:42.428Z,13.20
2018-09-03T23:08:11.477Z,13.30
2018-09-03T23:10:40.597Z,13.30
2018-09-03T23:13:09.678Z,13.30
2018-09-03T23:15:38.813Z,13.20
2018-09-03T23:18:07.906Z,13.20
2018-09-03T23:20:36.972Z,13.10
2018-09-03T23:23:06.045Z,13.20
2018-09-03T23:25:35.257Z,13.00
2018-09-03T23:28:04.333Z,13.00
2018-09-03T23:30:33.410Z,13.10
2018-09-03T23:33:02.497Z,13.00
2018-09-03T23:35:31.601Z,12.90
2018-09-03T23:38:00.665Z,13.00
2018-09-03T23:40:29.724Z,13.10
2018-09-03T23:42:58.788Z,13.10
2018-09-03T23:45:27.869Z,13.20
2018-09-03T23:47:56.986Z,13.00
2018-09-03T23:50:26.049Z,12.80
2018-09-03T23:52:55.301Z,12.90
2018-09-03T23:55:24.409Z,12.80
2018-09-03T23:57:53.540Z,12.70
